<?xml version="1.0" encoding="UTF-8" standalone="no" ?>
<gpx xmlns="http://www.topografix.com/GPX/1/1" xmlns:xsi="http://www.w3.org/2001/XMLSchema-instance" xsi:schemaLocation="http://www.topografix.com/GPX/1/1 http://www.topografix.com/GPX/1/1/gpx.xsd" version="1.1" creator="VisuGPX - https://www.visugpx.com">
  <metadata>
    <name>83-M-Roquebrune sur Argens </name>
    <desc><![CDATA[83-M-Roquebrune sur Argens : les trois Croix]]></desc>
  </metadata>
  <trk>
    <name><![CDATA[2015-05-27-M2-le muy 3 croix-modif]]></name>
    <trkseg>
      <trkpt lat="43.45093" lon="6.61546">
        <ele>11.1</ele>
        <time>2015-05-27T08:38:14Z</time>
      </trkpt>
      <trkpt lat="43.451" lon="6.61542">
        <ele>10</ele>
        <time>2015-05-27T08:38:31Z</time>
      </trkpt>
      <trkpt lat="43.45092" lon="6.61546">
        <ele>9.7</ele>
        <time>2015-05-27T08:39:31Z</time>
      </trkpt>
      <trkpt lat="43.45091" lon="6.61547">
        <ele>9.7</ele>
        <time>2015-05-27T08:39:32Z</time>
      </trkpt>
      <trkpt lat="43.45092" lon="6.61523">
        <ele>10.2</ele>
        <time>2015-05-27T08:40:26Z</time>
      </trkpt>
      <trkpt lat="43.45093" lon="6.61511">
        <ele>12.4</ele>
        <time>2015-05-27T08:41:03Z</time>
      </trkpt>
      <trkpt lat="43.45094" lon="6.6151">
        <ele>12.7</ele>
        <time>2015-05-27T08:41:04Z</time>
      </trkpt>
      <trkpt lat="43.45098" lon="6.61494">
        <ele>15.2</ele>
        <time>2015-05-27T08:41:24Z</time>
      </trkpt>
      <trkpt lat="43.45093" lon="6.61484">
        <ele>16.7</ele>
        <time>2015-05-27T08:41:35Z</time>
      </trkpt>
      <trkpt lat="43.45088" lon="6.61474">
        <ele>16.8</ele>
        <time>2015-05-27T08:41:46Z</time>
      </trkpt>
      <trkpt lat="43.45087" lon="6.61462">
        <ele>16.3</ele>
        <time>2015-05-27T08:42:28Z</time>
      </trkpt>
      <trkpt lat="43.45088" lon="6.61461">
        <ele>16</ele>
        <time>2015-05-27T08:42:29Z</time>
      </trkpt>
      <trkpt lat="43.45102" lon="6.61459">
        <ele>16.9</ele>
        <time>2015-05-27T08:42:57Z</time>
      </trkpt>
      <trkpt lat="43.4511" lon="6.61454">
        <ele>16.7</ele>
        <time>2015-05-27T08:43:08Z</time>
      </trkpt>
      <trkpt lat="43.45112" lon="6.61444">
        <ele>18</ele>
        <time>2015-05-27T08:43:37Z</time>
      </trkpt>
      <trkpt lat="43.45113" lon="6.61442">
        <ele>18.1</ele>
        <time>2015-05-27T08:43:38Z</time>
      </trkpt>
      <trkpt lat="43.45121" lon="6.61426">
        <ele>18.1</ele>
        <time>2015-05-27T08:43:52Z</time>
      </trkpt>
      <trkpt lat="43.45123" lon="6.61414">
        <ele>20.1</ele>
        <time>2015-05-27T08:44:21Z</time>
      </trkpt>
      <trkpt lat="43.45128" lon="6.61405">
        <ele>21.1</ele>
        <time>2015-05-27T08:44:33Z</time>
      </trkpt>
      <trkpt lat="43.4513" lon="6.61393">
        <ele>21.7</ele>
        <time>2015-05-27T08:44:45Z</time>
      </trkpt>
      <trkpt lat="43.4513" lon="6.61392">
        <ele>22</ele>
        <time>2015-05-27T08:44:46Z</time>
      </trkpt>
      <trkpt lat="43.45136" lon="6.61372">
        <ele>24.6</ele>
        <time>2015-05-27T08:45:06Z</time>
      </trkpt>
      <trkpt lat="43.45141" lon="6.61361">
        <ele>25.5</ele>
        <time>2015-05-27T08:45:14Z</time>
      </trkpt>
      <trkpt lat="43.45146" lon="6.61353">
        <ele>27.1</ele>
        <time>2015-05-27T08:45:23Z</time>
      </trkpt>
      <trkpt lat="43.45151" lon="6.61344">
        <ele>27.8</ele>
        <time>2015-05-27T08:45:31Z</time>
      </trkpt>
      <trkpt lat="43.45143" lon="6.61339">
        <ele>29.7</ele>
        <time>2015-05-27T08:46:21Z</time>
      </trkpt>
      <trkpt lat="43.45142" lon="6.61339">
        <ele>29.6</ele>
        <time>2015-05-27T08:46:22Z</time>
      </trkpt>
      <trkpt lat="43.45135" lon="6.61333">
        <ele>28.1</ele>
        <time>2015-05-27T08:49:12Z</time>
      </trkpt>
      <trkpt lat="43.45119" lon="6.61328">
        <ele>26.4</ele>
        <time>2015-05-27T08:49:42Z</time>
      </trkpt>
      <trkpt lat="43.45111" lon="6.61332">
        <ele>24.9</ele>
        <time>2015-05-27T08:49:55Z</time>
      </trkpt>
      <trkpt lat="43.45104" lon="6.61338">
        <ele>23.4</ele>
        <time>2015-05-27T08:50:10Z</time>
      </trkpt>
      <trkpt lat="43.45096" lon="6.61343">
        <ele>21</ele>
        <time>2015-05-27T08:50:32Z</time>
      </trkpt>
      <trkpt lat="43.45095" lon="6.61344">
        <ele>20.9</ele>
        <time>2015-05-27T08:50:33Z</time>
      </trkpt>
      <trkpt lat="43.45079" lon="6.61349">
        <ele>22.9</ele>
        <time>2015-05-27T08:50:50Z</time>
      </trkpt>
      <trkpt lat="43.45071" lon="6.61353">
        <ele>24</ele>
        <time>2015-05-27T08:51:00Z</time>
      </trkpt>
      <trkpt lat="43.45063" lon="6.61356">
        <ele>24.8</ele>
        <time>2015-05-27T08:51:10Z</time>
      </trkpt>
      <trkpt lat="43.45054" lon="6.61356">
        <ele>24.9</ele>
        <time>2015-05-27T08:51:22Z</time>
      </trkpt>
      <trkpt lat="43.45045" lon="6.61359">
        <ele>24.6</ele>
        <time>2015-05-27T08:51:37Z</time>
      </trkpt>
      <trkpt lat="43.45044" lon="6.6136">
        <ele>24.3</ele>
        <time>2015-05-27T08:51:38Z</time>
      </trkpt>
      <trkpt lat="43.45031" lon="6.61347">
        <ele>27.9</ele>
        <time>2015-05-27T08:52:11Z</time>
      </trkpt>
      <trkpt lat="43.45026" lon="6.61338">
        <ele>30.2</ele>
        <time>2015-05-27T08:52:28Z</time>
      </trkpt>
      <trkpt lat="43.4502" lon="6.61331">
        <ele>33</ele>
        <time>2015-05-27T08:54:06Z</time>
      </trkpt>
      <trkpt lat="43.45019" lon="6.6133">
        <ele>33.2</ele>
        <time>2015-05-27T08:54:07Z</time>
      </trkpt>
      <trkpt lat="43.45008" lon="6.61341">
        <ele>34.6</ele>
        <time>2015-05-27T08:54:37Z</time>
      </trkpt>
      <trkpt lat="43.45002" lon="6.61349">
        <ele>34.4</ele>
        <time>2015-05-27T08:54:46Z</time>
      </trkpt>
      <trkpt lat="43.44996" lon="6.61356">
        <ele>33.7</ele>
        <time>2015-05-27T08:55:06Z</time>
      </trkpt>
      <trkpt lat="43.44989" lon="6.61364">
        <ele>31.2</ele>
        <time>2015-05-27T08:55:15Z</time>
      </trkpt>
      <trkpt lat="43.44989" lon="6.61365">
        <ele>31.1</ele>
        <time>2015-05-27T08:55:16Z</time>
      </trkpt>
      <trkpt lat="43.44974" lon="6.61371">
        <ele>29.9</ele>
        <time>2015-05-27T08:56:04Z</time>
      </trkpt>
      <trkpt lat="43.44969" lon="6.61381">
        <ele>29.9</ele>
        <time>2015-05-27T08:56:30Z</time>
      </trkpt>
      <trkpt lat="43.44969" lon="6.61382">
        <ele>30.4</ele>
        <time>2015-05-27T08:56:31Z</time>
      </trkpt>
      <trkpt lat="43.44956" lon="6.61395">
        <ele>36.6</ele>
        <time>2015-05-27T08:57:03Z</time>
      </trkpt>
      <trkpt lat="43.44951" lon="6.61405">
        <ele>38.9</ele>
        <time>2015-05-27T08:57:24Z</time>
      </trkpt>
      <trkpt lat="43.44943" lon="6.614">
        <ele>42.3</ele>
        <time>2015-05-27T08:58:55Z</time>
      </trkpt>
      <trkpt lat="43.44942" lon="6.61399">
        <ele>42.6</ele>
        <time>2015-05-27T08:58:56Z</time>
      </trkpt>
      <trkpt lat="43.44932" lon="6.61382">
        <ele>45.9</ele>
        <time>2015-05-27T08:59:46Z</time>
      </trkpt>
      <trkpt lat="43.44926" lon="6.61392">
        <ele>50.2</ele>
        <time>2015-05-27T09:00:19Z</time>
      </trkpt>
      <trkpt lat="43.44926" lon="6.61392">
        <ele>50.1</ele>
        <time>2015-05-27T09:00:20Z</time>
      </trkpt>
      <trkpt lat="43.44911" lon="6.61384">
        <ele>55.8</ele>
        <time>2015-05-27T09:01:17Z</time>
      </trkpt>
      <trkpt lat="43.44902" lon="6.61386">
        <ele>56.8</ele>
        <time>2015-05-27T09:01:37Z</time>
      </trkpt>
      <trkpt lat="43.44902" lon="6.61386">
        <ele>57</ele>
        <time>2015-05-27T09:01:38Z</time>
      </trkpt>
      <trkpt lat="43.44888" lon="6.61385">
        <ele>62.1</ele>
        <time>2015-05-27T09:02:25Z</time>
      </trkpt>
      <trkpt lat="43.4488" lon="6.61382">
        <ele>66</ele>
        <time>2015-05-27T09:02:56Z</time>
      </trkpt>
      <trkpt lat="43.44879" lon="6.61381">
        <ele>66</ele>
        <time>2015-05-27T09:02:57Z</time>
      </trkpt>
      <trkpt lat="43.44867" lon="6.61368">
        <ele>68.3</ele>
        <time>2015-05-27T09:03:30Z</time>
      </trkpt>
      <trkpt lat="43.44859" lon="6.61362">
        <ele>70.9</ele>
        <time>2015-05-27T09:03:45Z</time>
      </trkpt>
      <trkpt lat="43.44855" lon="6.61373">
        <ele>74.8</ele>
        <time>2015-05-27T09:04:06Z</time>
      </trkpt>
      <trkpt lat="43.44855" lon="6.61374">
        <ele>74.7</ele>
        <time>2015-05-27T09:04:07Z</time>
      </trkpt>
      <trkpt lat="43.44849" lon="6.61382">
        <ele>75.9</ele>
        <time>2015-05-27T09:04:47Z</time>
      </trkpt>
      <trkpt lat="43.44842" lon="6.61376">
        <ele>75.8</ele>
        <time>2015-05-27T09:04:57Z</time>
      </trkpt>
      <trkpt lat="43.44835" lon="6.61368">
        <ele>76.2</ele>
        <time>2015-05-27T09:05:12Z</time>
      </trkpt>
      <trkpt lat="43.44834" lon="6.61368">
        <ele>76.1</ele>
        <time>2015-05-27T09:05:13Z</time>
      </trkpt>
      <trkpt lat="43.44821" lon="6.61371">
        <ele>81.1</ele>
        <time>2015-05-27T09:05:50Z</time>
      </trkpt>
      <trkpt lat="43.44815" lon="6.6138">
        <ele>82.8</ele>
        <time>2015-05-27T09:06:03Z</time>
      </trkpt>
      <trkpt lat="43.44806" lon="6.61379">
        <ele>86.3</ele>
        <time>2015-05-27T09:06:21Z</time>
      </trkpt>
      <trkpt lat="43.44806" lon="6.61379">
        <ele>86.4</ele>
        <time>2015-05-27T09:06:22Z</time>
      </trkpt>
      <trkpt lat="43.44789" lon="6.61374">
        <ele>92.1</ele>
        <time>2015-05-27T09:07:33Z</time>
      </trkpt>
      <trkpt lat="43.44789" lon="6.61374">
        <ele>92</ele>
        <time>2015-05-27T09:07:34Z</time>
      </trkpt>
      <trkpt lat="43.44774" lon="6.61374">
        <ele>97.3</ele>
        <time>2015-05-27T09:09:12Z</time>
      </trkpt>
      <trkpt lat="43.44773" lon="6.61375">
        <ele>97.4</ele>
        <time>2015-05-27T09:09:13Z</time>
      </trkpt>
      <trkpt lat="43.44759" lon="6.61374">
        <ele>98.8</ele>
        <time>2015-05-27T09:09:58Z</time>
      </trkpt>
      <trkpt lat="43.4475" lon="6.6137">
        <ele>100.1</ele>
        <time>2015-05-27T09:10:08Z</time>
      </trkpt>
      <trkpt lat="43.44753" lon="6.61359">
        <ele>103.7</ele>
        <time>2015-05-27T09:11:17Z</time>
      </trkpt>
      <trkpt lat="43.44754" lon="6.61358">
        <ele>104.3</ele>
        <time>2015-05-27T09:11:18Z</time>
      </trkpt>
      <trkpt lat="43.44752" lon="6.61346">
        <ele>105.5</ele>
        <time>2015-05-27T09:12:21Z</time>
      </trkpt>
      <trkpt lat="43.44743" lon="6.61346">
        <ele>109.8</ele>
        <time>2015-05-27T09:13:54Z</time>
      </trkpt>
      <trkpt lat="43.44731" lon="6.61335">
        <ele>112.1</ele>
        <time>2015-05-27T09:14:19Z</time>
      </trkpt>
      <trkpt lat="43.44725" lon="6.61327">
        <ele>115.8</ele>
        <time>2015-05-27T09:14:44Z</time>
      </trkpt>
      <trkpt lat="43.44725" lon="6.61316">
        <ele>118</ele>
        <time>2015-05-27T09:15:04Z</time>
      </trkpt>
      <trkpt lat="43.44725" lon="6.61315">
        <ele>118</ele>
        <time>2015-05-27T09:15:05Z</time>
      </trkpt>
      <trkpt lat="43.44726" lon="6.61304">
        <ele>121.1</ele>
        <time>2015-05-27T09:17:09Z</time>
      </trkpt>
      <trkpt lat="43.44718" lon="6.61295">
        <ele>128.6</ele>
        <time>2015-05-27T09:18:47Z</time>
      </trkpt>
      <trkpt lat="43.44703" lon="6.6129">
        <ele>135.1</ele>
        <time>2015-05-27T09:19:57Z</time>
      </trkpt>
      <trkpt lat="43.44702" lon="6.6129">
        <ele>135.2</ele>
        <time>2015-05-27T09:19:58Z</time>
      </trkpt>
      <trkpt lat="43.44686" lon="6.61289">
        <ele>140.6</ele>
        <time>2015-05-27T09:20:30Z</time>
      </trkpt>
      <trkpt lat="43.44678" lon="6.61294">
        <ele>145</ele>
        <time>2015-05-27T09:22:54Z</time>
      </trkpt>
      <trkpt lat="43.44678" lon="6.61294">
        <ele>145</ele>
        <time>2015-05-27T09:22:55Z</time>
      </trkpt>
      <trkpt lat="43.44677" lon="6.61281">
        <ele>147</ele>
        <time>2015-05-27T09:27:39Z</time>
      </trkpt>
      <trkpt lat="43.44678" lon="6.61269">
        <ele>142.8</ele>
        <time>2015-05-27T09:28:49Z</time>
      </trkpt>
      <trkpt lat="43.44675" lon="6.61247">
        <ele>143.3</ele>
        <time>2015-05-27T09:30:24Z</time>
      </trkpt>
      <trkpt lat="43.44675" lon="6.61246">
        <ele>143.3</ele>
        <time>2015-05-27T09:30:25Z</time>
      </trkpt>
      <trkpt lat="43.44687" lon="6.61236">
        <ele>147.3</ele>
        <time>2015-05-27T09:30:57Z</time>
      </trkpt>
      <trkpt lat="43.44687" lon="6.61224">
        <ele>151.4</ele>
        <time>2015-05-27T09:31:27Z</time>
      </trkpt>
      <trkpt lat="43.44687" lon="6.61224">
        <ele>151.6</ele>
        <time>2015-05-27T09:31:28Z</time>
      </trkpt>
      <trkpt lat="43.44678" lon="6.61205">
        <ele>156.9</ele>
        <time>2015-05-27T09:32:31Z</time>
      </trkpt>
      <trkpt lat="43.44678" lon="6.61204">
        <ele>157.2</ele>
        <time>2015-05-27T09:32:32Z</time>
      </trkpt>
      <trkpt lat="43.44677" lon="6.61181">
        <ele>163.6</ele>
        <time>2015-05-27T09:33:30Z</time>
      </trkpt>
      <trkpt lat="43.44674" lon="6.61169">
        <ele>166.5</ele>
        <time>2015-05-27T09:33:48Z</time>
      </trkpt>
      <trkpt lat="43.44674" lon="6.61168">
        <ele>166.5</ele>
        <time>2015-05-27T09:33:49Z</time>
      </trkpt>
      <trkpt lat="43.44665" lon="6.6115">
        <ele>167.5</ele>
        <time>2015-05-27T09:34:13Z</time>
      </trkpt>
      <trkpt lat="43.44663" lon="6.61139">
        <ele>168.2</ele>
        <time>2015-05-27T09:34:25Z</time>
      </trkpt>
      <trkpt lat="43.44661" lon="6.61127">
        <ele>168.7</ele>
        <time>2015-05-27T09:34:39Z</time>
      </trkpt>
      <trkpt lat="43.44666" lon="6.61117">
        <ele>172.7</ele>
        <time>2015-05-27T09:36:32Z</time>
      </trkpt>
      <trkpt lat="43.44667" lon="6.61117">
        <ele>172.7</ele>
        <time>2015-05-27T09:36:33Z</time>
      </trkpt>
      <trkpt lat="43.44676" lon="6.61097">
        <ele>178.5</ele>
        <time>2015-05-27T09:37:56Z</time>
      </trkpt>
      <trkpt lat="43.44676" lon="6.61096">
        <ele>178.5</ele>
        <time>2015-05-27T09:37:57Z</time>
      </trkpt>
      <trkpt lat="43.44677" lon="6.61074">
        <ele>182.2</ele>
        <time>2015-05-27T09:39:00Z</time>
      </trkpt>
      <trkpt lat="43.44677" lon="6.61073">
        <ele>182.3</ele>
        <time>2015-05-27T09:39:01Z</time>
      </trkpt>
      <trkpt lat="43.44681" lon="6.6105">
        <ele>183.1</ele>
        <time>2015-05-27T09:39:45Z</time>
      </trkpt>
      <trkpt lat="43.44681" lon="6.61038">
        <ele>186</ele>
        <time>2015-05-27T09:40:13Z</time>
      </trkpt>
      <trkpt lat="43.44681" lon="6.61037">
        <ele>186.1</ele>
        <time>2015-05-27T09:40:14Z</time>
      </trkpt>
      <trkpt lat="43.44665" lon="6.61029">
        <ele>188.6</ele>
        <time>2015-05-27T09:41:46Z</time>
      </trkpt>
      <trkpt lat="43.44665" lon="6.61029">
        <ele>188.6</ele>
        <time>2015-05-27T09:41:47Z</time>
      </trkpt>
      <trkpt lat="43.44656" lon="6.61007">
        <ele>195.9</ele>
        <time>2015-05-27T09:42:59Z</time>
      </trkpt>
      <trkpt lat="43.44656" lon="6.61005">
        <ele>196.1</ele>
        <time>2015-05-27T09:43:00Z</time>
      </trkpt>
      <trkpt lat="43.44643" lon="6.60988">
        <ele>202</ele>
        <time>2015-05-27T09:44:46Z</time>
      </trkpt>
      <trkpt lat="43.44643" lon="6.60985">
        <ele>202.1</ele>
        <time>2015-05-27T09:44:48Z</time>
      </trkpt>
      <trkpt lat="43.44632" lon="6.60972">
        <ele>209</ele>
        <time>2015-05-27T09:47:17Z</time>
      </trkpt>
      <trkpt lat="43.44632" lon="6.60971">
        <ele>210</ele>
        <time>2015-05-27T09:47:19Z</time>
      </trkpt>
      <trkpt lat="43.44625" lon="6.60963">
        <ele>218.6</ele>
        <time>2015-05-27T09:48:53Z</time>
      </trkpt>
      <trkpt lat="43.44616" lon="6.60962">
        <ele>224.4</ele>
        <time>2015-05-27T09:52:05Z</time>
      </trkpt>
      <trkpt lat="43.44614" lon="6.60949">
        <ele>221.4</ele>
        <time>2015-05-27T09:53:18Z</time>
      </trkpt>
      <trkpt lat="43.44619" lon="6.60927">
        <ele>215.7</ele>
        <time>2015-05-27T09:54:14Z</time>
      </trkpt>
      <trkpt lat="43.44617" lon="6.60915">
        <ele>215.9</ele>
        <time>2015-05-27T09:54:40Z</time>
      </trkpt>
      <trkpt lat="43.44618" lon="6.60915">
        <ele>215.8</ele>
        <time>2015-05-27T09:54:41Z</time>
      </trkpt>
      <trkpt lat="43.44614" lon="6.60903">
        <ele>219</ele>
        <time>2015-05-27T09:55:45Z</time>
      </trkpt>
      <trkpt lat="43.4462" lon="6.60886">
        <ele>220.2</ele>
        <time>2015-05-27T09:57:28Z</time>
      </trkpt>
      <trkpt lat="43.4462" lon="6.60884">
        <ele>220.1</ele>
        <time>2015-05-27T09:57:29Z</time>
      </trkpt>
      <trkpt lat="43.44626" lon="6.60876">
        <ele>223.3</ele>
        <time>2015-05-27T09:58:30Z</time>
      </trkpt>
      <trkpt lat="43.44641" lon="6.60887">
        <ele>232.1</ele>
        <time>2015-05-27T10:00:36Z</time>
      </trkpt>
      <trkpt lat="43.44642" lon="6.60887">
        <ele>232.2</ele>
        <time>2015-05-27T10:00:37Z</time>
      </trkpt>
      <trkpt lat="43.44657" lon="6.60877">
        <ele>239.6</ele>
        <time>2015-05-27T10:01:45Z</time>
      </trkpt>
      <trkpt lat="43.44657" lon="6.60877">
        <ele>239.7</ele>
        <time>2015-05-27T10:01:46Z</time>
      </trkpt>
      <trkpt lat="43.44671" lon="6.60863">
        <ele>248.1</ele>
        <time>2015-05-27T10:04:40Z</time>
      </trkpt>
      <trkpt lat="43.44671" lon="6.60863">
        <ele>248.3</ele>
        <time>2015-05-27T10:04:41Z</time>
      </trkpt>
      <trkpt lat="43.44677" lon="6.60853">
        <ele>251.8</ele>
        <time>2015-05-27T10:06:51Z</time>
      </trkpt>
      <trkpt lat="43.44687" lon="6.60839">
        <ele>258.1</ele>
        <time>2015-05-27T10:07:40Z</time>
      </trkpt>
      <trkpt lat="43.44687" lon="6.60827">
        <ele>260</ele>
        <time>2015-05-27T10:07:59Z</time>
      </trkpt>
      <trkpt lat="43.44686" lon="6.60827">
        <ele>260.2</ele>
        <time>2015-05-27T10:08:00Z</time>
      </trkpt>
      <trkpt lat="43.44685" lon="6.60815">
        <ele>267.3</ele>
        <time>2015-05-27T10:10:03Z</time>
      </trkpt>
      <trkpt lat="43.44698" lon="6.60801">
        <ele>269.9</ele>
        <time>2015-05-27T10:10:30Z</time>
      </trkpt>
      <trkpt lat="43.44706" lon="6.60795">
        <ele>273.2</ele>
        <time>2015-05-27T10:16:01Z</time>
      </trkpt>
      <trkpt lat="43.44706" lon="6.60795">
        <ele>273.2</ele>
        <time>2015-05-27T10:16:02Z</time>
      </trkpt>
      <trkpt lat="43.4471" lon="6.60772">
        <ele>272.8</ele>
        <time>2015-05-27T10:17:23Z</time>
      </trkpt>
      <trkpt lat="43.4471" lon="6.60771">
        <ele>272.7</ele>
        <time>2015-05-27T10:17:24Z</time>
      </trkpt>
      <trkpt lat="43.44715" lon="6.60749">
        <ele>275.5</ele>
        <time>2015-05-27T10:18:11Z</time>
      </trkpt>
      <trkpt lat="43.44718" lon="6.60738">
        <ele>276.7</ele>
        <time>2015-05-27T10:18:28Z</time>
      </trkpt>
      <trkpt lat="43.44718" lon="6.60737">
        <ele>276.9</ele>
        <time>2015-05-27T10:18:29Z</time>
      </trkpt>
      <trkpt lat="43.44719" lon="6.60715">
        <ele>279.4</ele>
        <time>2015-05-27T10:19:01Z</time>
      </trkpt>
      <trkpt lat="43.44716" lon="6.60704">
        <ele>281.7</ele>
        <time>2015-05-27T10:19:27Z</time>
      </trkpt>
      <trkpt lat="43.44712" lon="6.60693">
        <ele>282</ele>
        <time>2015-05-27T10:19:41Z</time>
      </trkpt>
      <trkpt lat="43.44712" lon="6.60692">
        <ele>282</ele>
        <time>2015-05-27T10:19:42Z</time>
      </trkpt>
      <trkpt lat="43.44724" lon="6.60677">
        <ele>286.8</ele>
        <time>2015-05-27T10:20:33Z</time>
      </trkpt>
      <trkpt lat="43.44726" lon="6.60666">
        <ele>289.2</ele>
        <time>2015-05-27T10:20:52Z</time>
      </trkpt>
      <trkpt lat="43.44726" lon="6.60665">
        <ele>289.3</ele>
        <time>2015-05-27T10:20:53Z</time>
      </trkpt>
      <trkpt lat="43.4474" lon="6.60651">
        <ele>297.4</ele>
        <time>2015-05-27T10:24:05Z</time>
      </trkpt>
      <trkpt lat="43.44741" lon="6.6065">
        <ele>297.5</ele>
        <time>2015-05-27T10:24:06Z</time>
      </trkpt>
      <trkpt lat="43.44735" lon="6.60626">
        <ele>298</ele>
        <time>2015-05-27T10:25:12Z</time>
      </trkpt>
      <trkpt lat="43.44735" lon="6.60626">
        <ele>298.7</ele>
        <time>2015-05-27T10:25:14Z</time>
      </trkpt>
      <trkpt lat="43.44741" lon="6.60616">
        <ele>296.9</ele>
        <time>2015-05-27T10:26:22Z</time>
      </trkpt>
      <trkpt lat="43.4474" lon="6.60604">
        <ele>290.2</ele>
        <time>2015-05-27T10:28:38Z</time>
      </trkpt>
      <trkpt lat="43.44741" lon="6.60604">
        <ele>290</ele>
        <time>2015-05-27T10:28:39Z</time>
      </trkpt>
      <trkpt lat="43.44748" lon="6.60597">
        <ele>286.3</ele>
        <time>2015-05-27T10:30:36Z</time>
      </trkpt>
      <trkpt lat="43.4475" lon="6.60586">
        <ele>288</ele>
        <time>2015-05-27T10:31:51Z</time>
      </trkpt>
      <trkpt lat="43.44753" lon="6.60578">
        <ele>290.7</ele>
        <time>2015-05-27T10:40:18Z</time>
      </trkpt>
      <trkpt lat="43.44753" lon="6.60578">
        <ele>290.7</ele>
        <time>2015-05-27T10:40:19Z</time>
      </trkpt>
      <trkpt lat="43.44753" lon="6.60575">
        <ele>292</ele>
        <time>2015-05-27T10:41:38Z</time>
      </trkpt>
      <trkpt lat="43.44754" lon="6.60576">
        <ele>292.6</ele>
        <time>2015-05-27T10:41:40Z</time>
      </trkpt>
      <trkpt lat="43.44755" lon="6.60569">
        <ele>294</ele>
        <time>2015-05-27T10:42:52Z</time>
      </trkpt>
      <trkpt lat="43.44754" lon="6.60554">
        <ele>295.2</ele>
        <time>2015-05-27T10:44:51Z</time>
      </trkpt>
      <trkpt lat="43.44754" lon="6.60554">
        <ele>295.2</ele>
        <time>2015-05-27T10:44:52Z</time>
      </trkpt>
      <trkpt lat="43.44752" lon="6.60541">
        <ele>293</ele>
        <time>2015-05-27T10:46:24Z</time>
      </trkpt>
      <trkpt lat="43.44753" lon="6.60517">
        <ele>302.8</ele>
        <time>2015-05-27T10:51:49Z</time>
      </trkpt>
      <trkpt lat="43.44753" lon="6.60516">
        <ele>302.7</ele>
        <time>2015-05-27T10:51:50Z</time>
      </trkpt>
      <trkpt lat="43.44748" lon="6.60509">
        <ele>301.1</ele>
        <time>2015-05-27T11:04:42Z</time>
      </trkpt>
      <trkpt lat="43.4475" lon="6.605">
        <ele>302.5</ele>
        <time>2015-05-27T11:12:38Z</time>
      </trkpt>
      <trkpt lat="43.44747" lon="6.60491">
        <ele>294.2</ele>
        <time>2015-05-27T11:17:29Z</time>
      </trkpt>
      <trkpt lat="43.44748" lon="6.60482">
        <ele>295.4</ele>
        <time>2015-05-27T11:19:05Z</time>
      </trkpt>
      <trkpt lat="43.4474" lon="6.60474">
        <ele>291</ele>
        <time>2015-05-27T11:20:11Z</time>
      </trkpt>
      <trkpt lat="43.44736" lon="6.60473">
        <ele>291.9</ele>
        <time>2015-05-27T11:20:13Z</time>
      </trkpt>
      <trkpt lat="43.44738" lon="6.60459">
        <ele>294.8</ele>
        <time>2015-05-27T11:21:35Z</time>
      </trkpt>
      <trkpt lat="43.44737" lon="6.60458">
        <ele>294.7</ele>
        <time>2015-05-27T11:21:36Z</time>
      </trkpt>
      <trkpt lat="43.44736" lon="6.6045">
        <ele>291</ele>
        <time>2015-05-27T11:23:18Z</time>
      </trkpt>
      <trkpt lat="43.44735" lon="6.6045">
        <ele>290.9</ele>
        <time>2015-05-27T11:23:19Z</time>
      </trkpt>
      <trkpt lat="43.44734" lon="6.60438">
        <ele>287.5</ele>
        <time>2015-05-27T11:24:36Z</time>
      </trkpt>
      <trkpt lat="43.44727" lon="6.60432">
        <ele>286.3</ele>
        <time>2015-05-27T11:26:18Z</time>
      </trkpt>
      <trkpt lat="43.44729" lon="6.60412">
        <ele>290.2</ele>
        <time>2015-05-27T11:27:46Z</time>
      </trkpt>
      <trkpt lat="43.44729" lon="6.60412">
        <ele>290.1</ele>
        <time>2015-05-27T11:27:47Z</time>
      </trkpt>
      <trkpt lat="43.44735" lon="6.60403">
        <ele>291</ele>
        <time>2015-05-27T11:29:12Z</time>
      </trkpt>
      <trkpt lat="43.44739" lon="6.604">
        <ele>293.6</ele>
        <time>2015-05-27T11:30:18Z</time>
      </trkpt>
      <trkpt lat="43.44746" lon="6.604">
        <ele>300.9</ele>
        <time>2015-05-27T11:34:51Z</time>
      </trkpt>
      <trkpt lat="43.44746" lon="6.60402">
        <ele>301</ele>
        <time>2015-05-27T11:34:52Z</time>
      </trkpt>
      <trkpt lat="43.44756" lon="6.60401">
        <ele>306.1</ele>
        <time>2015-05-27T11:36:27Z</time>
      </trkpt>
      <trkpt lat="43.44764" lon="6.60403">
        <ele>310.9</ele>
        <time>2015-05-27T11:37:48Z</time>
      </trkpt>
      <trkpt lat="43.44776" lon="6.60416">
        <ele>311.7</ele>
        <time>2015-05-27T11:38:01Z</time>
      </trkpt>
      <trkpt lat="43.44785" lon="6.60416">
        <ele>317</ele>
        <time>2015-05-27T11:39:30Z</time>
      </trkpt>
      <trkpt lat="43.44786" lon="6.60416">
        <ele>316.9</ele>
        <time>2015-05-27T11:39:32Z</time>
      </trkpt>
      <trkpt lat="43.44787" lon="6.60415">
        <ele>320</ele>
        <time>2015-05-27T11:40:31Z</time>
      </trkpt>
      <trkpt lat="43.44785" lon="6.60412">
        <ele>320.4</ele>
        <time>2015-05-27T11:40:35Z</time>
      </trkpt>
      <trkpt lat="43.44785" lon="6.60414">
        <ele>323.3</ele>
        <time>2015-05-27T11:42:29Z</time>
      </trkpt>
      <trkpt lat="43.44786" lon="6.60416">
        <ele>323.3</ele>
        <time>2015-05-27T11:42:30Z</time>
      </trkpt>
      <trkpt lat="43.44792" lon="6.60414">
        <ele>326</ele>
        <time>2015-05-27T11:43:51Z</time>
      </trkpt>
      <trkpt lat="43.44798" lon="6.60419">
        <ele>327.2</ele>
        <time>2015-05-27T11:43:56Z</time>
      </trkpt>
      <trkpt lat="43.44794" lon="6.60413">
        <ele>330</ele>
        <time>2015-05-27T11:45:04Z</time>
      </trkpt>
      <trkpt lat="43.44793" lon="6.60413">
        <ele>331</ele>
        <time>2015-05-27T11:45:06Z</time>
      </trkpt>
      <trkpt lat="43.44797" lon="6.60418">
        <ele>338</ele>
        <time>2015-05-27T11:47:02Z</time>
      </trkpt>
      <trkpt lat="43.44804" lon="6.60409">
        <ele>342</ele>
        <time>2015-05-27T11:47:29Z</time>
      </trkpt>
      <trkpt lat="43.44804" lon="6.60408">
        <ele>343.1</ele>
        <time>2015-05-27T11:47:31Z</time>
      </trkpt>
      <trkpt lat="43.44805" lon="6.604">
        <ele>358</ele>
        <time>2015-05-27T11:53:58Z</time>
      </trkpt>
      <trkpt lat="43.4481" lon="6.60397">
        <ele>358</ele>
        <time>2015-05-27T11:54:05Z</time>
      </trkpt>
      <trkpt lat="43.44817" lon="6.60395">
        <ele>360</ele>
        <time>2015-05-27T11:54:21Z</time>
      </trkpt>
      <trkpt lat="43.44824" lon="6.60395">
        <ele>361.3</ele>
        <time>2015-05-27T11:54:35Z</time>
      </trkpt>
      <trkpt lat="43.44828" lon="6.60396">
        <ele>361</ele>
        <time>2015-05-27T11:55:05Z</time>
      </trkpt>
      <trkpt lat="43.44831" lon="6.60396">
        <ele>362.3</ele>
        <time>2015-05-27T11:55:08Z</time>
      </trkpt>
      <trkpt lat="43.44827" lon="6.60383">
        <ele>366</ele>
        <time>2015-05-27T12:50:15Z</time>
      </trkpt>
      <trkpt lat="43.44826" lon="6.60377">
        <ele>367</ele>
        <time>2015-05-27T12:50:38Z</time>
      </trkpt>
      <trkpt lat="43.44826" lon="6.60361">
        <ele>365</ele>
        <time>2015-05-27T12:51:44Z</time>
      </trkpt>
      <trkpt lat="43.44811" lon="6.60354">
        <ele>365</ele>
        <time>2015-05-27T12:51:51Z</time>
      </trkpt>
      <trkpt lat="43.44817" lon="6.60347">
        <ele>365.1</ele>
        <time>2015-05-27T12:52:00Z</time>
      </trkpt>
      <trkpt lat="43.44829" lon="6.60353">
        <ele>364.8</ele>
        <time>2015-05-27T12:52:02Z</time>
      </trkpt>
      <trkpt lat="43.44832" lon="6.60369">
        <ele>364.7</ele>
        <time>2015-05-27T12:52:05Z</time>
      </trkpt>
      <trkpt lat="43.44833" lon="6.6038">
        <ele>364.7</ele>
        <time>2015-05-27T12:52:24Z</time>
      </trkpt>
      <trkpt lat="43.44837" lon="6.60388">
        <ele>362</ele>
        <time>2015-05-27T12:52:42Z</time>
      </trkpt>
      <trkpt lat="43.44846" lon="6.6039">
        <ele>362</ele>
        <time>2015-05-27T12:54:18Z</time>
      </trkpt>
      <trkpt lat="43.44847" lon="6.6039">
        <ele>362.5</ele>
        <time>2015-05-27T12:54:20Z</time>
      </trkpt>
      <trkpt lat="43.44855" lon="6.60388">
        <ele>366.5</ele>
        <time>2015-05-27T12:56:20Z</time>
      </trkpt>
      <trkpt lat="43.44864" lon="6.60396">
        <ele>370.7</ele>
        <time>2015-05-27T12:58:39Z</time>
      </trkpt>
      <trkpt lat="43.44872" lon="6.60399">
        <ele>372.3</ele>
        <time>2015-05-27T13:01:58Z</time>
      </trkpt>
      <trkpt lat="43.4489" lon="6.60399">
        <ele>369.7</ele>
        <time>2015-05-27T13:04:57Z</time>
      </trkpt>
      <trkpt lat="43.4489" lon="6.60399">
        <ele>369.6</ele>
        <time>2015-05-27T13:04:58Z</time>
      </trkpt>
      <trkpt lat="43.44907" lon="6.60397">
        <ele>372</ele>
        <time>2015-05-27T13:05:48Z</time>
      </trkpt>
      <trkpt lat="43.44914" lon="6.60398">
        <ele>371</ele>
        <time>2015-05-27T13:06:33Z</time>
      </trkpt>
      <trkpt lat="43.44916" lon="6.60399">
        <ele>371</ele>
        <time>2015-05-27T13:06:34Z</time>
      </trkpt>
      <trkpt lat="43.44929" lon="6.60393">
        <ele>373.7</ele>
        <time>2015-05-27T13:09:04Z</time>
      </trkpt>
      <trkpt lat="43.4493" lon="6.60393">
        <ele>373.7</ele>
        <time>2015-05-27T13:09:05Z</time>
      </trkpt>
      <trkpt lat="43.44939" lon="6.60391">
        <ele>371.3</ele>
        <time>2015-05-27T13:19:35Z</time>
      </trkpt>
      <trkpt lat="43.44936" lon="6.60379">
        <ele>366.8</ele>
        <time>2015-05-27T13:21:42Z</time>
      </trkpt>
      <trkpt lat="43.44936" lon="6.60366">
        <ele>361.6</ele>
        <time>2015-05-27T13:23:43Z</time>
      </trkpt>
      <trkpt lat="43.44931" lon="6.60378">
        <ele>359.3</ele>
        <time>2015-05-27T13:25:23Z</time>
      </trkpt>
      <trkpt lat="43.44938" lon="6.6037">
        <ele>353.4</ele>
        <time>2015-05-27T13:27:01Z</time>
      </trkpt>
      <trkpt lat="43.44949" lon="6.60372">
        <ele>346.2</ele>
        <time>2015-05-27T13:29:09Z</time>
      </trkpt>
      <trkpt lat="43.44942" lon="6.60361">
        <ele>344.2</ele>
        <time>2015-05-27T13:30:19Z</time>
      </trkpt>
      <trkpt lat="43.4494" lon="6.60347">
        <ele>336.6</ele>
        <time>2015-05-27T13:32:07Z</time>
      </trkpt>
      <trkpt lat="43.44946" lon="6.60339">
        <ele>333.9</ele>
        <time>2015-05-27T13:37:39Z</time>
      </trkpt>
      <trkpt lat="43.44957" lon="6.60339">
        <ele>335.6</ele>
        <time>2015-05-27T13:40:42Z</time>
      </trkpt>
      <trkpt lat="43.44957" lon="6.60339">
        <ele>335.4</ele>
        <time>2015-05-27T13:40:43Z</time>
      </trkpt>
      <trkpt lat="43.4497" lon="6.60345">
        <ele>330.3</ele>
        <time>2015-05-27T13:41:58Z</time>
      </trkpt>
      <trkpt lat="43.4497" lon="6.60346">
        <ele>330.4</ele>
        <time>2015-05-27T13:41:59Z</time>
      </trkpt>
      <trkpt lat="43.44981" lon="6.60361">
        <ele>323.8</ele>
        <time>2015-05-27T13:43:24Z</time>
      </trkpt>
      <trkpt lat="43.44982" lon="6.60361">
        <ele>323.7</ele>
        <time>2015-05-27T13:43:25Z</time>
      </trkpt>
      <trkpt lat="43.44992" lon="6.60375">
        <ele>318.3</ele>
        <time>2015-05-27T13:44:46Z</time>
      </trkpt>
      <trkpt lat="43.44993" lon="6.60375">
        <ele>318.3</ele>
        <time>2015-05-27T13:44:47Z</time>
      </trkpt>
      <trkpt lat="43.44997" lon="6.60397">
        <ele>309.7</ele>
        <time>2015-05-27T13:45:58Z</time>
      </trkpt>
      <trkpt lat="43.44997" lon="6.60399">
        <ele>309.7</ele>
        <time>2015-05-27T13:45:59Z</time>
      </trkpt>
      <trkpt lat="43.45014" lon="6.60395">
        <ele>300</ele>
        <time>2015-05-27T13:47:57Z</time>
      </trkpt>
      <trkpt lat="43.45016" lon="6.60392">
        <ele>300.1</ele>
        <time>2015-05-27T13:47:59Z</time>
      </trkpt>
      <trkpt lat="43.45023" lon="6.60401">
        <ele>293.1</ele>
        <time>2015-05-27T13:51:04Z</time>
      </trkpt>
      <trkpt lat="43.45023" lon="6.604">
        <ele>292.8</ele>
        <time>2015-05-27T13:51:05Z</time>
      </trkpt>
      <trkpt lat="43.45019" lon="6.60413">
        <ele>288.6</ele>
        <time>2015-05-27T13:52:09Z</time>
      </trkpt>
      <trkpt lat="43.45029" lon="6.60429">
        <ele>279.9</ele>
        <time>2015-05-27T13:53:53Z</time>
      </trkpt>
      <trkpt lat="43.45029" lon="6.60421">
        <ele>279.9</ele>
        <time>2015-05-27T13:53:54Z</time>
      </trkpt>
      <trkpt lat="43.45027" lon="6.60436">
        <ele>268.3</ele>
        <time>2015-05-27T13:59:54Z</time>
      </trkpt>
      <trkpt lat="43.45027" lon="6.60438">
        <ele>268.7</ele>
        <time>2015-05-27T14:00:51Z</time>
      </trkpt>
      <trkpt lat="43.45022" lon="6.60448">
        <ele>261.1</ele>
        <time>2015-05-27T14:02:25Z</time>
      </trkpt>
      <trkpt lat="43.45022" lon="6.60449">
        <ele>261.2</ele>
        <time>2015-05-27T14:02:26Z</time>
      </trkpt>
      <trkpt lat="43.4502" lon="6.60472">
        <ele>254.5</ele>
        <time>2015-05-27T14:03:25Z</time>
      </trkpt>
      <trkpt lat="43.45022" lon="6.60484">
        <ele>252.4</ele>
        <time>2015-05-27T14:03:40Z</time>
      </trkpt>
      <trkpt lat="43.45022" lon="6.60485">
        <ele>252.3</ele>
        <time>2015-05-27T14:03:41Z</time>
      </trkpt>
      <trkpt lat="43.45026" lon="6.60496">
        <ele>241.7</ele>
        <time>2015-05-27T14:05:11Z</time>
      </trkpt>
      <trkpt lat="43.45034" lon="6.605">
        <ele>235.6</ele>
        <time>2015-05-27T14:06:26Z</time>
      </trkpt>
      <trkpt lat="43.45048" lon="6.60508">
        <ele>226.4</ele>
        <time>2015-05-27T14:07:47Z</time>
      </trkpt>
      <trkpt lat="43.45049" lon="6.60508">
        <ele>226.6</ele>
        <time>2015-05-27T14:07:48Z</time>
      </trkpt>
      <trkpt lat="43.4505" lon="6.60529">
        <ele>219.3</ele>
        <time>2015-05-27T14:09:03Z</time>
      </trkpt>
      <trkpt lat="43.4505" lon="6.6053">
        <ele>219.3</ele>
        <time>2015-05-27T14:09:04Z</time>
      </trkpt>
      <trkpt lat="43.45052" lon="6.60543">
        <ele>212.2</ele>
        <time>2015-05-27T14:11:04Z</time>
      </trkpt>
      <trkpt lat="43.45052" lon="6.60543">
        <ele>211.7</ele>
        <time>2015-05-27T14:11:05Z</time>
      </trkpt>
      <trkpt lat="43.45065" lon="6.60556">
        <ele>199.5</ele>
        <time>2015-05-27T14:12:48Z</time>
      </trkpt>
      <trkpt lat="43.45065" lon="6.60557">
        <ele>199.8</ele>
        <time>2015-05-27T14:12:49Z</time>
      </trkpt>
      <trkpt lat="43.45066" lon="6.60578">
        <ele>191.4</ele>
        <time>2015-05-27T14:14:16Z</time>
      </trkpt>
      <trkpt lat="43.45066" lon="6.60578">
        <ele>191.2</ele>
        <time>2015-05-27T14:14:17Z</time>
      </trkpt>
      <trkpt lat="43.45079" lon="6.60595">
        <ele>175.2</ele>
        <time>2015-05-27T14:15:40Z</time>
      </trkpt>
      <trkpt lat="43.45079" lon="6.60595">
        <ele>175.4</ele>
        <time>2015-05-27T14:15:41Z</time>
      </trkpt>
      <trkpt lat="43.45091" lon="6.60611">
        <ele>170.2</ele>
        <time>2015-05-27T14:16:28Z</time>
      </trkpt>
      <trkpt lat="43.45097" lon="6.6062">
        <ele>165.5</ele>
        <time>2015-05-27T14:16:55Z</time>
      </trkpt>
      <trkpt lat="43.45097" lon="6.60621">
        <ele>165.6</ele>
        <time>2015-05-27T14:16:56Z</time>
      </trkpt>
      <trkpt lat="43.45114" lon="6.60628">
        <ele>159.8</ele>
        <time>2015-05-27T14:17:47Z</time>
      </trkpt>
      <trkpt lat="43.45118" lon="6.60638">
        <ele>155.9</ele>
        <time>2015-05-27T14:18:26Z</time>
      </trkpt>
      <trkpt lat="43.45118" lon="6.60639">
        <ele>156</ele>
        <time>2015-05-27T14:18:27Z</time>
      </trkpt>
      <trkpt lat="43.45128" lon="6.60659">
        <ele>152.4</ele>
        <time>2015-05-27T14:18:58Z</time>
      </trkpt>
      <trkpt lat="43.45133" lon="6.60668">
        <ele>148.5</ele>
        <time>2015-05-27T14:19:18Z</time>
      </trkpt>
      <trkpt lat="43.45136" lon="6.60679">
        <ele>144.8</ele>
        <time>2015-05-27T14:19:39Z</time>
      </trkpt>
      <trkpt lat="43.45136" lon="6.6068">
        <ele>144.7</ele>
        <time>2015-05-27T14:19:40Z</time>
      </trkpt>
      <trkpt lat="43.4514" lon="6.60702">
        <ele>143.7</ele>
        <time>2015-05-27T14:20:01Z</time>
      </trkpt>
      <trkpt lat="43.45145" lon="6.60712">
        <ele>141.3</ele>
        <time>2015-05-27T14:20:24Z</time>
      </trkpt>
      <trkpt lat="43.45151" lon="6.6072">
        <ele>139.6</ele>
        <time>2015-05-27T14:20:43Z</time>
      </trkpt>
      <trkpt lat="43.45151" lon="6.60721">
        <ele>139.3</ele>
        <time>2015-05-27T14:20:44Z</time>
      </trkpt>
      <trkpt lat="43.45165" lon="6.60732">
        <ele>136.6</ele>
        <time>2015-05-27T14:21:47Z</time>
      </trkpt>
      <trkpt lat="43.45166" lon="6.60732">
        <ele>136.1</ele>
        <time>2015-05-27T14:21:48Z</time>
      </trkpt>
      <trkpt lat="43.45168" lon="6.60745">
        <ele>135.1</ele>
        <time>2015-05-27T14:23:21Z</time>
      </trkpt>
      <trkpt lat="43.45173" lon="6.60766">
        <ele>130.8</ele>
        <time>2015-05-27T14:23:42Z</time>
      </trkpt>
      <trkpt lat="43.45177" lon="6.60777">
        <ele>129.2</ele>
        <time>2015-05-27T14:24:07Z</time>
      </trkpt>
      <trkpt lat="43.45181" lon="6.60787">
        <ele>125.5</ele>
        <time>2015-05-27T14:24:40Z</time>
      </trkpt>
      <trkpt lat="43.45182" lon="6.60788">
        <ele>124.9</ele>
        <time>2015-05-27T14:24:41Z</time>
      </trkpt>
      <trkpt lat="43.4519" lon="6.60807">
        <ele>122.2</ele>
        <time>2015-05-27T14:25:01Z</time>
      </trkpt>
      <trkpt lat="43.45197" lon="6.60814">
        <ele>120.7</ele>
        <time>2015-05-27T14:25:11Z</time>
      </trkpt>
      <trkpt lat="43.45204" lon="6.60821">
        <ele>118.7</ele>
        <time>2015-05-27T14:25:22Z</time>
      </trkpt>
      <trkpt lat="43.4521" lon="6.6083">
        <ele>116.8</ele>
        <time>2015-05-27T14:25:32Z</time>
      </trkpt>
      <trkpt lat="43.45202" lon="6.60826">
        <ele>115.2</ele>
        <time>2015-05-27T14:25:47Z</time>
      </trkpt>
      <trkpt lat="43.45201" lon="6.60826">
        <ele>115</ele>
        <time>2015-05-27T14:25:48Z</time>
      </trkpt>
      <trkpt lat="43.45185" lon="6.60824">
        <ele>112.5</ele>
        <time>2015-05-27T14:26:15Z</time>
      </trkpt>
      <trkpt lat="43.45178" lon="6.60831">
        <ele>112.2</ele>
        <time>2015-05-27T14:26:37Z</time>
      </trkpt>
      <trkpt lat="43.45177" lon="6.60843">
        <ele>109.9</ele>
        <time>2015-05-27T14:26:55Z</time>
      </trkpt>
      <trkpt lat="43.45177" lon="6.60844">
        <ele>110</ele>
        <time>2015-05-27T14:26:56Z</time>
      </trkpt>
      <trkpt lat="43.45177" lon="6.60843">
        <ele>110.3</ele>
        <time>2015-05-27T14:28:00Z</time>
      </trkpt>
      <trkpt lat="43.45176" lon="6.60843">
        <ele>110</ele>
        <time>2015-05-27T14:28:01Z</time>
      </trkpt>
      <trkpt lat="43.45177" lon="6.60862">
        <ele>103.7</ele>
        <time>2015-05-27T14:29:05Z</time>
      </trkpt>
      <trkpt lat="43.45177" lon="6.60863">
        <ele>103.4</ele>
        <time>2015-05-27T14:29:06Z</time>
      </trkpt>
      <trkpt lat="43.45187" lon="6.60882">
        <ele>101.1</ele>
        <time>2015-05-27T14:29:24Z</time>
      </trkpt>
      <trkpt lat="43.45192" lon="6.60891">
        <ele>98.1</ele>
        <time>2015-05-27T14:29:35Z</time>
      </trkpt>
      <trkpt lat="43.45195" lon="6.60902">
        <ele>95.6</ele>
        <time>2015-05-27T14:29:45Z</time>
      </trkpt>
      <trkpt lat="43.45195" lon="6.60913">
        <ele>95.5</ele>
        <time>2015-05-27T14:30:04Z</time>
      </trkpt>
      <trkpt lat="43.4519" lon="6.60922">
        <ele>94.9</ele>
        <time>2015-05-27T14:30:10Z</time>
      </trkpt>
      <trkpt lat="43.45189" lon="6.60924">
        <ele>94.6</ele>
        <time>2015-05-27T14:30:11Z</time>
      </trkpt>
      <trkpt lat="43.45185" lon="6.60944">
        <ele>92.8</ele>
        <time>2015-05-27T14:30:45Z</time>
      </trkpt>
      <trkpt lat="43.45179" lon="6.60953">
        <ele>97.6</ele>
        <time>2015-05-27T14:31:19Z</time>
      </trkpt>
      <trkpt lat="43.45179" lon="6.60953">
        <ele>97.4</ele>
        <time>2015-05-27T14:31:20Z</time>
      </trkpt>
      <trkpt lat="43.45184" lon="6.60947">
        <ele>94.1</ele>
        <time>2015-05-27T14:32:50Z</time>
      </trkpt>
      <trkpt lat="43.45184" lon="6.60945">
        <ele>94.1</ele>
        <time>2015-05-27T14:32:51Z</time>
      </trkpt>
      <trkpt lat="43.452" lon="6.60944">
        <ele>92.6</ele>
        <time>2015-05-27T14:33:16Z</time>
      </trkpt>
      <trkpt lat="43.45204" lon="6.60953">
        <ele>89.5</ele>
        <time>2015-05-27T14:33:28Z</time>
      </trkpt>
      <trkpt lat="43.45211" lon="6.60962">
        <ele>88.5</ele>
        <time>2015-05-27T14:33:36Z</time>
      </trkpt>
      <trkpt lat="43.45217" lon="6.60968">
        <ele>87.3</ele>
        <time>2015-05-27T14:33:43Z</time>
      </trkpt>
      <trkpt lat="43.45221" lon="6.6098">
        <ele>86.3</ele>
        <time>2015-05-27T14:33:58Z</time>
      </trkpt>
      <trkpt lat="43.45221" lon="6.60981">
        <ele>86.3</ele>
        <time>2015-05-27T14:33:59Z</time>
      </trkpt>
      <trkpt lat="43.45232" lon="6.60997">
        <ele>80.5</ele>
        <time>2015-05-27T14:34:22Z</time>
      </trkpt>
      <trkpt lat="43.45236" lon="6.61007">
        <ele>77.4</ele>
        <time>2015-05-27T14:34:43Z</time>
      </trkpt>
      <trkpt lat="43.45236" lon="6.61017">
        <ele>75.8</ele>
        <time>2015-05-27T14:34:49Z</time>
      </trkpt>
      <trkpt lat="43.45237" lon="6.61028">
        <ele>75.8</ele>
        <time>2015-05-27T14:34:57Z</time>
      </trkpt>
      <trkpt lat="43.4524" lon="6.61039">
        <ele>73.3</ele>
        <time>2015-05-27T14:35:10Z</time>
      </trkpt>
      <trkpt lat="43.4524" lon="6.61039">
        <ele>73.3</ele>
        <time>2015-05-27T14:35:11Z</time>
      </trkpt>
      <trkpt lat="43.45243" lon="6.61063">
        <ele>70.1</ele>
        <time>2015-05-27T14:35:31Z</time>
      </trkpt>
      <trkpt lat="43.4525" lon="6.6107">
        <ele>68.2</ele>
        <time>2015-05-27T14:35:43Z</time>
      </trkpt>
      <trkpt lat="43.45258" lon="6.61076">
        <ele>66.6</ele>
        <time>2015-05-27T14:35:54Z</time>
      </trkpt>
      <trkpt lat="43.45266" lon="6.61081">
        <ele>63.6</ele>
        <time>2015-05-27T14:36:09Z</time>
      </trkpt>
      <trkpt lat="43.45273" lon="6.61088">
        <ele>62.5</ele>
        <time>2015-05-27T14:36:20Z</time>
      </trkpt>
      <trkpt lat="43.45273" lon="6.61088">
        <ele>62.4</ele>
        <time>2015-05-27T14:36:21Z</time>
      </trkpt>
      <trkpt lat="43.45289" lon="6.61088">
        <ele>59</ele>
        <time>2015-05-27T14:36:43Z</time>
      </trkpt>
      <trkpt lat="43.45298" lon="6.61091">
        <ele>56.2</ele>
        <time>2015-05-27T14:37:01Z</time>
      </trkpt>
      <trkpt lat="43.45302" lon="6.61101">
        <ele>52.6</ele>
        <time>2015-05-27T14:37:18Z</time>
      </trkpt>
      <trkpt lat="43.45309" lon="6.61107">
        <ele>50.7</ele>
        <time>2015-05-27T14:37:31Z</time>
      </trkpt>
      <trkpt lat="43.4531" lon="6.61108">
        <ele>50.4</ele>
        <time>2015-05-27T14:37:32Z</time>
      </trkpt>
      <trkpt lat="43.45322" lon="6.61124">
        <ele>47.7</ele>
        <time>2015-05-27T14:37:52Z</time>
      </trkpt>
      <trkpt lat="43.45325" lon="6.61135">
        <ele>45.8</ele>
        <time>2015-05-27T14:38:03Z</time>
      </trkpt>
      <trkpt lat="43.45329" lon="6.61145">
        <ele>44.7</ele>
        <time>2015-05-27T14:38:13Z</time>
      </trkpt>
      <trkpt lat="43.45335" lon="6.61153">
        <ele>42.8</ele>
        <time>2015-05-27T14:38:22Z</time>
      </trkpt>
      <trkpt lat="43.45342" lon="6.61161">
        <ele>41.6</ele>
        <time>2015-05-27T14:38:32Z</time>
      </trkpt>
      <trkpt lat="43.45342" lon="6.61161">
        <ele>41.4</ele>
        <time>2015-05-27T14:38:33Z</time>
      </trkpt>
      <trkpt lat="43.45347" lon="6.61182">
        <ele>38.9</ele>
        <time>2015-05-27T14:38:52Z</time>
      </trkpt>
      <trkpt lat="43.45344" lon="6.61193">
        <ele>36.5</ele>
        <time>2015-05-27T14:39:03Z</time>
      </trkpt>
      <trkpt lat="43.45337" lon="6.612">
        <ele>35.7</ele>
        <time>2015-05-27T14:39:12Z</time>
      </trkpt>
      <trkpt lat="43.45334" lon="6.61211">
        <ele>30.2</ele>
        <time>2015-05-27T14:40:10Z</time>
      </trkpt>
      <trkpt lat="43.45334" lon="6.61212">
        <ele>29.6</ele>
        <time>2015-05-27T14:40:11Z</time>
      </trkpt>
      <trkpt lat="43.45332" lon="6.61233">
        <ele>27.9</ele>
        <time>2015-05-27T14:40:55Z</time>
      </trkpt>
      <trkpt lat="43.45327" lon="6.61243">
        <ele>27.4</ele>
        <time>2015-05-27T14:41:14Z</time>
      </trkpt>
      <trkpt lat="43.45327" lon="6.61244">
        <ele>27.3</ele>
        <time>2015-05-27T14:41:15Z</time>
      </trkpt>
      <trkpt lat="43.45323" lon="6.61266">
        <ele>25.9</ele>
        <time>2015-05-27T14:41:29Z</time>
      </trkpt>
      <trkpt lat="43.45323" lon="6.61277">
        <ele>24.4</ele>
        <time>2015-05-27T14:41:39Z</time>
      </trkpt>
      <trkpt lat="43.45319" lon="6.61289">
        <ele>22.6</ele>
        <time>2015-05-27T14:41:57Z</time>
      </trkpt>
      <trkpt lat="43.45315" lon="6.61297">
        <ele>24.2</ele>
        <time>2015-05-27T14:42:13Z</time>
      </trkpt>
      <trkpt lat="43.45308" lon="6.61305">
        <ele>23.2</ele>
        <time>2015-05-27T14:42:33Z</time>
      </trkpt>
      <trkpt lat="43.45308" lon="6.61305">
        <ele>23.1</ele>
        <time>2015-05-27T14:42:34Z</time>
      </trkpt>
      <trkpt lat="43.45297" lon="6.61321">
        <ele>23.3</ele>
        <time>2015-05-27T14:43:04Z</time>
      </trkpt>
      <trkpt lat="43.45294" lon="6.61333">
        <ele>23.9</ele>
        <time>2015-05-27T14:43:13Z</time>
      </trkpt>
      <trkpt lat="43.4529" lon="6.61344">
        <ele>24.7</ele>
        <time>2015-05-27T14:43:21Z</time>
      </trkpt>
      <trkpt lat="43.45287" lon="6.61355">
        <ele>23.9</ele>
        <time>2015-05-27T14:43:30Z</time>
      </trkpt>
      <trkpt lat="43.45283" lon="6.61364">
        <ele>22.9</ele>
        <time>2015-05-27T14:43:38Z</time>
      </trkpt>
      <trkpt lat="43.45283" lon="6.61365">
        <ele>23.3</ele>
        <time>2015-05-27T14:43:39Z</time>
      </trkpt>
      <trkpt lat="43.45268" lon="6.61373">
        <ele>24.7</ele>
        <time>2015-05-27T14:43:59Z</time>
      </trkpt>
      <trkpt lat="43.4526" lon="6.61374">
        <ele>24</ele>
        <time>2015-05-27T14:44:06Z</time>
      </trkpt>
      <trkpt lat="43.45253" lon="6.61381">
        <ele>23.7</ele>
        <time>2015-05-27T14:44:15Z</time>
      </trkpt>
      <trkpt lat="43.45247" lon="6.61391">
        <ele>25.2</ele>
        <time>2015-05-27T14:44:26Z</time>
      </trkpt>
      <trkpt lat="43.45245" lon="6.61402">
        <ele>23.8</ele>
        <time>2015-05-27T14:44:33Z</time>
      </trkpt>
      <trkpt lat="43.45244" lon="6.61414">
        <ele>24</ele>
        <time>2015-05-27T14:44:40Z</time>
      </trkpt>
      <trkpt lat="43.45243" lon="6.61416">
        <ele>24</ele>
        <time>2015-05-27T14:44:41Z</time>
      </trkpt>
      <trkpt lat="43.45238" lon="6.61435">
        <ele>24.1</ele>
        <time>2015-05-27T14:44:52Z</time>
      </trkpt>
      <trkpt lat="43.45234" lon="6.61446">
        <ele>24.1</ele>
        <time>2015-05-27T14:44:59Z</time>
      </trkpt>
      <trkpt lat="43.4523" lon="6.61457">
        <ele>24.4</ele>
        <time>2015-05-27T14:45:12Z</time>
      </trkpt>
      <trkpt lat="43.45224" lon="6.61463">
        <ele>23.9</ele>
        <time>2015-05-27T14:45:19Z</time>
      </trkpt>
      <trkpt lat="43.45216" lon="6.61469">
        <ele>22.9</ele>
        <time>2015-05-27T14:45:29Z</time>
      </trkpt>
      <trkpt lat="43.45208" lon="6.61472">
        <ele>23.6</ele>
        <time>2015-05-27T14:45:40Z</time>
      </trkpt>
      <trkpt lat="43.45201" lon="6.61479">
        <ele>23</ele>
        <time>2015-05-27T14:45:48Z</time>
      </trkpt>
      <trkpt lat="43.452" lon="6.61479">
        <ele>23</ele>
        <time>2015-05-27T14:45:49Z</time>
      </trkpt>
      <trkpt lat="43.45189" lon="6.61493">
        <ele>23.5</ele>
        <time>2015-05-27T14:46:04Z</time>
      </trkpt>
      <trkpt lat="43.45181" lon="6.61498">
        <ele>22.7</ele>
        <time>2015-05-27T14:46:12Z</time>
      </trkpt>
      <trkpt lat="43.45173" lon="6.615">
        <ele>23.2</ele>
        <time>2015-05-27T14:46:22Z</time>
      </trkpt>
      <trkpt lat="43.45166" lon="6.61494">
        <ele>22.8</ele>
        <time>2015-05-27T14:46:31Z</time>
      </trkpt>
      <trkpt lat="43.45158" lon="6.61495">
        <ele>23.3</ele>
        <time>2015-05-27T14:46:40Z</time>
      </trkpt>
      <trkpt lat="43.45149" lon="6.61496">
        <ele>22.9</ele>
        <time>2015-05-27T14:46:47Z</time>
      </trkpt>
      <trkpt lat="43.4514" lon="6.61496">
        <ele>23</ele>
        <time>2015-05-27T14:46:55Z</time>
      </trkpt>
      <trkpt lat="43.45139" lon="6.61496">
        <ele>22.9</ele>
        <time>2015-05-27T14:46:56Z</time>
      </trkpt>
      <trkpt lat="43.45128" lon="6.61511">
        <ele>25.4</ele>
        <time>2015-05-27T14:47:10Z</time>
      </trkpt>
      <trkpt lat="43.45122" lon="6.61519">
        <ele>24.8</ele>
        <time>2015-05-27T14:47:17Z</time>
      </trkpt>
      <trkpt lat="43.45118" lon="6.61529">
        <ele>23.2</ele>
        <time>2015-05-27T14:47:28Z</time>
      </trkpt>
      <trkpt lat="43.4511" lon="6.61533">
        <ele>23.5</ele>
        <time>2015-05-27T14:47:34Z</time>
      </trkpt>
      <trkpt lat="43.45103" lon="6.6154">
        <ele>23.7</ele>
        <time>2015-05-27T14:47:56Z</time>
      </trkpt>
      <trkpt lat="43.45101" lon="6.61541">
        <ele>23.6</ele>
        <time>2015-05-27T14:47:57Z</time>
      </trkpt>
      <trkpt lat="43.45093" lon="6.61558">
        <ele>23.4</ele>
        <time>2015-05-27T14:48:52Z</time>
      </trkpt>
      <trkpt lat="43.45101" lon="6.61553">
        <ele>23.4</ele>
        <time>2015-05-27T14:49:03Z</time>
      </trkpt>
      <trkpt lat="43.45102" lon="6.61553">
        <ele>23.4</ele>
        <time>2015-05-27T14:49:04Z</time>
      </trkpt>
      <trkpt lat="43.45095" lon="6.6155">
        <ele>23</ele>
        <time>2015-05-27T14:50:47Z</time>
      </trkpt>
      <trkpt lat="43.45094" lon="6.61551">
        <ele>24</ele>
        <time>2015-05-27T14:50:49Z</time>
      </trkpt>
    </trkseg>
  </trk>
</gpx>